Time;durP1;ratioP1;P1;durP2;ratioP2;P2;SDS_P1;SDS_P2;PMS_P1;PMS_P2;Temp;Humidity;BMP_temperature;BMP_pressure;BME280_temperature;BME280_humidity;BME280_pressure;Samples;Min_cycle;Max_cycle;Signal;HPM_P1;HPM_P2
2020/12/08 00:01:46;;;;;;;70.80;26.60;;;0.70;99.90;;;;;;4443879;28;658427;-59
2020/12/08 00:04:33;;;;;;;67.37;27.03;;;0.70;99.90;;;;;;4461561;28;658370;-58
2020/12/08 00:07:20;;;;;;;65.83;26.10;;;0.70;99.90;;;;;;4460621;28;657531;-59
2020/12/08 00:10:07;;;;;;;59.37;24.77;;;0.70;99.90;;;;;;4443329;28;657815;-59
2020/12/08 00:12:54;;;;;;;59.85;24.98;;;0.70;99.90;;;;;;4465480;28;657865;-58
2020/12/08 00:15:41;;;;;;;60.30;24.07;;;0.60;99.90;;;;;;4433369;28;657452;-59
2020/12/08 00:18:28;;;;;;;60.13;24.30;;;0.70;99.90;;;;;;4467599;28;658373;-59
2020/12/08 00:21:17;;;;;;;56.37;24.13;;;0.70;99.90;;;;;;4459412;28;658042;-60
2020/12/08 00:24:04;;;;;;;60.27;23.90;;;0.70;99.90;;;;;;4466985;28;658091;-58
2020/12/08 00:26:52;;;;;;;63.03;24.67;;;0.70;99.90;;;;;;4445695;28;657862;-59
2020/12/08 00:29:39;;;;;;;66.63;25.27;;;0.60;99.90;;;;;;4468416;28;657859;-58
2020/12/08 00:32:26;;;;;;;62.50;24.47;;;0.60;99.90;;;;;;4449744;28;658211;-60
2020/12/08 00:35:13;;;;;;;67.83;24.93;;;0.60;99.90;;;;;;4467601;28;659091;-58
2020/12/08 00:38:00;;;;;;;56.50;24.57;;;0.60;99.90;;;;;;4462390;28;658091;-61
2020/12/08 00:40:47;;;;;;;67.47;25.07;;;0.70;99.90;;;;;;4472842;28;657778;-59
2020/12/08 00:43:35;;;;;;;53.93;22.70;;;0.60;99.90;;;;;;4455554;28;657642;-58
2020/12/08 00:46:22;;;;;;;63.20;24.87;;;0.70;99.90;;;;;;4438838;28;658034;-58
2020/12/08 00:49:09;;;;;;;70.87;26.80;;;0.70;99.90;;;;;;4467479;28;657332;-58
2020/12/08 00:51:56;;;;;;;62.17;23.83;;;0.70;99.90;;;;;;4449856;28;657633;-60
2020/12/08 00:54:43;;;;;;;58.22;24.75;;;0.60;99.90;;;;;;4468099;28;659157;-59
2020/12/08 00:57:30;;;;;;;60.10;24.33;;;0.70;99.90;;;;;;4445411;28;658534;-61
2020/12/08 01:00:18;;;;;;;60.50;24.67;;;0.70;99.90;;;;;;4471154;28;658896;-60
2020/12/08 01:03:05;;;;;;;64.90;26.10;;;0.60;99.90;;;;;;4448042;28;657643;-61
2020/12/08 01:05:52;;;;;;;60.83;23.27;;;0.70;99.90;;;;;;4464893;28;658509;-59
2020/12/08 01:08:39;;;;;;;60.13;24.35;;;0.70;99.90;;;;;;4468094;28;657738;-58
2020/12/08 01:11:26;;;;;;;55.47;22.10;;;0.70;99.90;;;;;;4445553;28;657499;-60
2020/12/08 01:14:13;;;;;;;62.40;24.50;;;0.70;99.90;;;;;;4463315;28;658323;-58
2020/12/08 01:17:01;;;;;;;51.70;20.17;;;0.70;99.90;;;;;;4436637;28;658489;-60
2020/12/08 01:19:48;;;;;;;58.63;23.33;;;0.70;99.90;;;;;;4466588;28;658982;-59
2020/12/08 01:22:35;;;;;;;51.38;20.38;;;0.70;99.90;;;;;;4451372;28;657830;-60
2020/12/08 01:25:23;;;;;;;63.37;23.70;;;0.70;99.90;;;;;;4470291;28;658559;-59
2020/12/08 01:28:09;;;;;;;57.70;23.47;;;0.70;99.90;;;;;;4462302;28;658194;-58
2020/12/08 01:30:57;;;;;;;58.20;23.63;;;0.60;99.90;;;;;;4447310;28;657502;-60
2020/12/08 01:33:45;;;;;;;54.53;22.13;;;0.60;99.90;;;;;;4465633;28;658165;-58
2020/12/08 01:36:32;;;;;;;57.33;23.73;;;0.50;99.90;;;;;;4448629;28;657883;-59
2020/12/08 01:39:19;;;;;;;58.53;24.40;;;0.50;99.90;;;;;;4463060;28;658459;-59
2020/12/08 01:42:06;;;;;;;60.93;23.87;;;0.50;99.90;;;;;;4444113;28;657870;-59
2020/12/08 01:44:53;;;;;;;57.07;23.13;;;0.40;99.90;;;;;;4466784;28;658674;-59
2020/12/08 01:47:41;;;;;;;63.83;23.50;;;0.40;99.90;;;;;;4463072;28;657563;-59
2020/12/08 01:50:29;;;;;;;57.37;21.97;;;0.50;99.90;;;;;;4444588;28;659322;-59
2020/12/08 01:53:16;;;;;;;60.63;23.33;;;0.40;99.90;;;;;;4448167;28;657360;-59
2020/12/08 01:56:03;;;;;;;61.10;23.83;;;0.40;99.90;;;;;;4464827;28;658763;-59
2020/12/08 01:58:50;;;;;;;46.07;18.93;;;0.50;99.90;;;;;;4465665;28;657436;-59
2020/12/08 02:01:37;;;;;;;55.97;22.70;;;0.50;99.90;;;;;;4448497;28;657848;-59
2020/12/08 02:04:24;;;;;;;59.03;24.17;;;0.50;99.90;;;;;;4467469;28;658551;-58
2020/12/08 02:07:11;;;;;;;56.53;21.20;;;0.50;99.90;;;;;;4448813;28;658198;-60
2020/12/08 02:09:59;;;;;;;54.20;20.50;;;0.40;99.90;;;;;;4467077;28;658893;-59
2020/12/08 02:12:46;;;;;;;51.90;20.93;;;0.50;99.90;;;;;;4449876;28;657663;-61
2020/12/08 02:15:33;;;;;;;58.57;23.00;;;0.40;99.90;;;;;;4462690;28;658373;-58
2020/12/08 02:18:20;;;;;;;58.63;22.90;;;0.40;99.90;;;;;;4465432;28;659018;-60
2020/12/08 02:21:08;;;;;;;59.27;23.57;;;0.40;99.90;;;;;;4473906;28;658780;-58
2020/12/08 02:23:55;;;;;;;56.13;22.60;;;0.40;99.90;;;;;;4451378;28;657451;-60
2020/12/08 02:26:43;;;;;;;53.30;21.47;;;0.40;99.90;;;;;;4467150;28;657487;-58
2020/12/08 02:29:30;;;;;;;58.90;22.13;;;0.30;99.90;;;;;;4470260;28;658017;-59
2020/12/08 02:32:16;;;;;;;56.60;22.47;;;0.40;99.90;;;;;;4442202;28;659150;-59
2020/12/08 02:35:03;;;;;;;61.30;22.45;;;0.30;99.90;;;;;;4470000;28;659088;-58
2020/12/08 02:37:51;;;;;;;47.90;19.70;;;0.30;99.90;;;;;;4444958;28;657519;-60
2020/12/08 02:40:38;;;;;;;52.07;21.67;;;0.30;99.90;;;;;;4470272;28;659167;-58
2020/12/08 02:43:25;;;;;;;37.20;15.37;;;0.40;99.90;;;;;;4452339;28;657668;-60
2020/12/08 02:46:12;;;;;;;47.77;18.37;;;0.40;99.90;;;;;;4474553;28;658883;-59
2020/12/08 02:48:59;;;;;;;60.37;22.60;;;0.40;99.90;;;;;;4462420;28;657825;-59
2020/12/08 02:51:46;;;;;;;59.63;23.10;;;0.40;99.90;;;;;;4445125;28;658136;-59
2020/12/08 02:54:34;;;;;;;53.80;21.83;;;0.40;99.90;;;;;;4470085;28;658382;-59
2020/12/08 02:57:21;;;;;;;60.70;23.03;;;0.30;99.90;;;;;;4442132;28;658482;-60
2020/12/08 03:00:08;;;;;;;55.63;22.20;;;0.40;99.90;;;;;;4469999;28;658542;-58
2020/12/08 03:02:55;;;;;;;61.30;21.60;;;0.30;99.90;;;;;;4466611;28;657600;-60
2020/12/08 03:05:42;;;;;;;53.23;21.40;;;0.30;99.90;;;;;;4470003;28;657870;-59
2020/12/08 03:08:29;;;;;;;42.43;17.50;;;0.30;99.90;;;;;;4470174;28;657623;-58
2020/12/08 03:11:18;;;;;;;54.07;22.03;;;0.30;99.90;;;;;;4450854;28;657792;-59
2020/12/08 03:14:07;;;;;;;57.72;21.90;;;0.30;99.90;;;;;;4448052;28;657552;-60
2020/12/08 03:16:56;;;;;;;65.83;22.13;;;0.30;99.90;;;;;;4469713;28;657890;-59
2020/12/08 03:19:43;;;;;;;47.40;20.73;;;0.30;99.90;;;;;;4440067;28;659472;-59
2020/12/08 03:22:30;;;;;;;56.47;22.87;;;0.30;99.90;;;;;;4459675;28;657838;-60
2020/12/08 03:25:17;;;;;;;55.57;21.90;;;0.30;99.90;;;;;;4461579;28;658976;-60
2020/12/08 03:28:05;;;;;;;49.57;20.17;;;0.20;99.90;;;;;;4469767;28;657093;-59
2020/12/08 03:30:52;;;;;;;52.47;21.43;;;0.30;99.90;;;;;;4446729;28;659142;-60
2020/12/08 03:33:39;;;;;;;52.40;20.17;;;0.20;99.90;;;;;;4462012;28;658492;-59
2020/12/08 03:36:26;;;;;;;54.13;21.20;;;0.20;99.90;;;;;;4450199;28;659220;-59
2020/12/08 03:39:16;;;;;;;50.53;19.83;;;0.30;99.90;;;;;;4464345;28;659023;-60
2020/12/08 03:42:03;;;;;;;50.37;19.50;;;0.20;99.90;;;;;;4445175;28;659338;-59
2020/12/08 03:44:51;;;;;;;47.77;19.50;;;0.20;99.90;;;;;;4462180;28;657425;-62
2020/12/08 03:47:38;;;;;;;44.30;18.97;;;0.10;99.90;;;;;;4472386;28;659213;-60
2020/12/08 03:50:25;;;;;;;50.72;20.50;;;0.20;99.90;;;;;;4455547;28;657571;-62
2020/12/08 03:53:12;;;;;;;51.28;20.38;;;0.10;99.90;;;;;;4469859;28;657821;-60
2020/12/08 03:55:59;;;;;;;50.80;20.60;;;0.10;99.90;;;;;;4461732;28;658716;-60
2020/12/08 03:58:46;;;;;;;51.87;20.27;;;0.20;99.90;;;;;;4450206;28;657680;-60
2020/12/08 04:01:34;;;;;;;57.15;20.33;;;0.10;99.90;;;;;;4469027;28;658998;-59
2020/12/08 04:04:21;;;;;;;46.90;15.73;;;0.10;99.90;;;;;;4441737;28;657433;-60
2020/12/08 04:07:08;;;;;;;48.30;19.60;;;0.10;99.90;;;;;;4472661;28;658892;-59
2020/12/08 04:09:56;;;;;;;52.03;20.40;;;0.20;99.90;;;;;;4446826;28;657670;-61
2020/12/08 04:12:43;;;;;;;49.37;20.20;;;0.10;99.90;;;;;;4466215;28;658487;-60
2020/12/08 04:15:30;;;;;;;54.53;19.00;;;0.00;99.90;;;;;;4457969;28;657610;-61
2020/12/08 04:18:18;;;;;;;44.83;19.00;;;0.00;99.90;;;;;;4469252;28;657816;-60
2020/12/08 04:21:07;;;;;;;53.70;21.17;;;0.00;99.90;;;;;;4447155;28;657643;-62
2020/12/08 04:23:54;;;;;;;45.37;18.40;;;0.00;99.90;;;;;;4466878;28;658288;-60
2020/12/08 04:26:44;;;;;;;47.83;20.17;;;0.00;99.90;;;;;;4447289;28;657562;-59
2020/12/08 04:29:31;;;;;;;55.50;20.40;;;-0.10;99.90;;;;;;4439399;28;658143;-60
2020/12/08 04:32:18;;;;;;;52.93;20.17;;;0.00;99.90;;;;;;4471025;28;659993;-59
2020/12/08 04:35:06;;;;;;;46.77;18.10;;;-0.10;99.90;;;;;;4453845;28;657437;-61
2020/12/08 04:37:53;;;;;;;42.37;16.87;;;-0.10;99.90;;;;;;4460980;28;659210;-59
2020/12/08 04:40:40;;;;;;;47.60;19.00;;;0.00;99.90;;;;;;4441588;28;658549;-62
2020/12/08 04:43:27;;;;;;;51.00;19.87;;;-0.10;99.90;;;;;;4462699;28;659455;-60
2020/12/08 04:46:14;;;;;;;52.10;21.15;;;-0.10;99.90;;;;;;4467225;28;659349;-59
2020/12/08 04:49:01;;;;;;;51.43;20.27;;;-0.10;99.90;;;;;;4443386;28;659702;-60
2020/12/08 04:51:49;;;;;;;49.03;18.37;;;-0.20;99.90;;;;;;4468425;28;660205;-60
2020/12/08 04:54:36;;;;;;;44.37;18.73;;;-0.20;99.90;;;;;;4447568;28;659463;-61
2020/12/08 04:57:23;;;;;;;49.33;18.43;;;-0.20;99.90;;;;;;4464223;28;660515;-60
2020/12/08 05:00:11;;;;;;;44.17;17.63;;;-0.20;99.90;;;;;;4444936;28;658619;-62
2020/12/08 05:02:58;;;;;;;41.90;18.50;;;-0.20;99.90;;;;;;4470658;28;660052;-60
2020/12/08 05:05:46;;;;;;;44.23;16.77;;;-0.20;99.90;;;;;;4446879;28;658361;-61
2020/12/08 05:08:33;;;;;;;43.47;17.03;;;-0.20;99.90;;;;;;4463381;28;659862;-60
2020/12/08 05:11:26;;;;;;;46.90;19.27;;;-0.20;99.90;;;;;;4442341;28;658790;-61
2020/12/08 05:14:14;;;;;;;50.47;18.50;;;-0.30;99.90;;;;;;4437240;28;659815;-59
2020/12/08 05:17:04;;;;;;;45.00;18.10;;;-0.30;99.90;;;;;;4448078;28;658550;-60
2020/12/08 05:20:02;;;;;;;48.70;18.80;;;-0.40;99.90;;;;;;4442506;28;658869;-60
2020/12/08 05:22:55;;;;;;;51.20;19.40;;;-0.40;99.90;;;;;;4442641;28;659911;-60
2020/12/08 05:25:45;;;;;;;45.23;17.87;;;-0.50;99.90;;;;;;4415458;28;659194;-60
2020/12/08 05:28:32;;;;;;;42.03;18.13;;;-0.60;99.90;;;;;;4440857;28;658734;-59
2020/12/08 05:31:26;;;;;;;46.43;17.47;;;-0.70;99.90;;;;;;4466340;28;658420;-60
2020/12/08 05:34:13;;;;;;;43.27;17.23;;;-0.60;99.90;;;;;;4409294;28;659294;-60
2020/12/08 05:37:00;;;;;;;47.17;18.40;;;-0.70;99.90;;;;;;4453293;28;658602;-59
2020/12/08 05:39:47;;;;;;;53.33;19.23;;;-0.80;99.90;;;;;;4440907;28;659661;-60
2020/12/08 05:42:35;;;;;;;48.40;18.23;;;-0.80;99.90;;;;;;4466370;28;659683;-59
2020/12/08 05:45:23;;;;;;;44.47;17.97;;;-0.90;99.90;;;;;;4446643;28;660248;-60
2020/12/08 05:48:09;;;;;;;47.37;17.90;;;-0.90;99.90;;;;;;4466243;28;658689;-59
2020/12/08 05:50:56;;;;;;;46.30;18.38;;;-0.90;99.90;;;;;;4438615;28;658890;-61
2020/12/08 05:53:43;;;;;;;49.90;20.77;;;-1.00;99.90;;;;;;4459449;28;659991;-60
2020/12/08 05:56:34;;;;;;;35.53;15.70;;;-1.00;99.90;;;;;;4443122;28;658736;-61
2020/12/08 05:59:25;;;;;;;49.43;18.87;;;-1.00;99.90;;;;;;4447380;28;658527;-59
2020/12/08 06:02:12;;;;;;;50.53;19.90;;;-1.00;99.90;;;;;;4448013;28;659543;-60
2020/12/08 06:04:59;;;;;;;54.60;18.57;;;-1.00;99.90;;;;;;4457249;28;659385;-59
2020/12/08 06:07:46;;;;;;;44.63;18.67;;;-1.00;99.90;;;;;;4437225;28;658746;-60
2020/12/08 06:10:43;;;;;;;50.13;19.40;;;-1.10;99.90;;;;;;4465821;28;660824;-60
2020/12/08 06:13:31;;;;;;;50.72;19.25;;;-1.10;99.90;;;;;;4430332;28;658776;-61
2020/12/08 06:16:20;;;;;;;58.15;20.45;;;-1.10;99.90;;;;;;4474239;28;659645;-59
2020/12/08 06:19:07;;;;;;;57.50;20.40;;;-1.10;99.90;;;;;;4445255;28;658778;-60
2020/12/08 06:21:54;;;;;;;47.53;18.80;;;-1.10;99.90;;;;;;4465845;28;659479;-61
2020/12/08 06:24:51;;;;;;;48.23;18.70;;;-1.10;99.90;;;;;;4441037;28;658660;-60
2020/12/08 06:27:38;;;;;;;46.67;17.47;;;-1.10;99.90;;;;;;4442502;28;660203;-59
2020/12/08 06:30:25;;;;;;;47.30;18.83;;;-1.20;99.90;;;;;;4458905;28;658543;-61
2020/12/08 06:33:13;;;;;;;58.08;19.55;;;-1.20;99.90;;;;;;4461364;28;658383;-60
2020/12/08 06:36:00;;;;;;;49.90;18.83;;;-1.30;99.90;;;;;;4444970;28;658704;-62
2020/12/08 06:38:56;;;;;;;53.53;19.75;;;-1.10;99.90;;;;;;4469213;28;659462;-60
2020/12/08 06:41:44;;;;;;;52.80;18.80;;;-1.10;99.90;;;;;;4441368;28;660627;-60
2020/12/08 06:44:31;;;;;;;51.43;19.57;;;-1.00;99.90;;;;;;4448680;28;659692;-61
2020/12/08 06:47:18;;;;;;;49.17;17.83;;;-1.00;99.90;;;;;;4458921;28;659077;-60
2020/12/08 06:50:07;;;;;;;48.45;18.85;;;-1.00;99.90;;;;;;4450974;28;659451;-61
2020/12/08 06:52:55;;;;;;;50.77;19.07;;;-1.00;99.90;;;;;;4463145;28;658792;-59
2020/12/08 06:55:47;;;;;;;55.07;21.03;;;-1.00;99.90;;;;;;4447152;28;660266;-60
2020/12/08 06:58:33;;;;;;;59.40;20.97;;;-1.00;99.90;;;;;;4434964;28;658848;-60
2020/12/08 07:01:20;;;;;;;56.03;21.33;;;-1.00;99.90;;;;;;4443342;28;658561;-62
2020/12/08 07:04:07;;;;;;;56.83;22.73;;;-1.00;99.90;;;;;;4472660;28;658758;-60
2020/12/08 07:06:58;;;;;;;55.77;20.90;;;-0.90;99.90;;;;;;4461175;28;658574;-59
2020/12/08 07:09:45;;;;;;;58.87;22.03;;;-0.80;99.90;;;;;;4430672;28;659349;-59
2020/12/08 07:12:41;;;;;;;56.07;20.40;;;-0.80;99.90;;;;;;4449637;28;658668;-60
2020/12/08 07:15:27;;;;;;;66.90;23.83;;;-0.80;99.90;;;;;;4419971;28;659819;-59
2020/12/08 07:18:14;;;;;;;51.40;20.20;;;-0.70;99.90;;;;;;4470725;27;658702;-60
2020/12/08 07:21:01;;;;;;;64.17;22.83;;;-0.70;99.90;;;;;;4448496;28;658547;-60
2020/12/08 07:23:51;;;;;;;58.53;21.73;;;-0.70;99.90;;;;;;4454375;28;660915;-59
2020/12/08 07:26:38;;;;;;;62.33;21.20;;;-0.60;99.90;;;;;;4445146;28;659680;-59
2020/12/08 07:29:25;;;;;;;56.93;20.80;;;-0.60;99.90;;;;;;4446793;28;658439;-61
2020/12/08 07:32:12;;;;;;;56.47;20.07;;;-0.50;99.90;;;;;;4457771;28;658841;-61
2020/12/08 07:34:59;;;;;;;52.27;21.47;;;-0.40;99.90;;;;;;4461505;28;659055;-61
2020/12/08 07:37:47;;;;;;;37.70;15.43;;;-0.40;99.90;;;;;;4445342;28;658561;-62
2020/12/08 07:40:35;;;;;;;59.03;22.13;;;-0.40;99.90;;;;;;4451135;28;658891;-61
2020/12/08 07:43:29;;;;;;;59.37;21.27;;;-0.40;99.90;;;;;;4438504;28;659944;-60
2020/12/08 07:46:26;;;;;;;47.50;17.00;;;-0.40;99.90;;;;;;4409439;28;660211;-60
2020/12/08 07:49:13;;;;;;;59.53;22.03;;;-0.20;99.90;;;;;;4434196;28;659405;-61
2020/12/08 07:52:00;;;;;;;59.17;22.93;;;-0.20;99.90;;;;;;4441415;28;658481;-62
2020/12/08 07:54:47;;;;;;;60.67;21.80;;;-0.10;99.90;;;;;;4455015;28;658614;-61
2020/12/08 07:57:35;;;;;;;62.07;23.40;;;0.00;99.90;;;;;;4450668;28;658753;-60
2020/12/08 08:00:22;;;;;;;52.10;20.00;;;0.00;99.90;;;;;;4429012;28;658417;-60
2020/12/08 08:03:09;;;;;;;63.93;24.43;;;-0.10;99.90;;;;;;4451291;28;657608;-60
2020/12/08 08:05:57;;;;;;;55.28;20.10;;;0.00;99.90;;;;;;4431527;28;658695;-60
2020/12/08 08:08:44;;;;;;;60.87;22.63;;;-0.10;99.90;;;;;;4459315;28;657933;-61
2020/12/08 08:11:31;;;;;;;55.13;22.23;;;-0.10;99.90;;;;;;4431358;28;658713;-60
2020/12/08 08:14:20;;;;;;;49.65;20.55;;;-0.10;99.90;;;;;;4452659;28;659495;-61
2020/12/08 08:17:07;;;;;;;59.07;20.67;;;0.00;99.90;;;;;;4433255;28;660092;-62
2020/12/08 08:19:54;;;;;;;56.60;20.70;;;0.10;99.90;;;;;;4464423;27;658319;-60
2020/12/08 08:22:41;;;;;;;48.00;19.50;;;0.10;99.90;;;;;;4432750;28;658003;-61
2020/12/08 08:25:28;;;;;;;50.60;20.23;;;0.30;99.90;;;;;;4455366;28;659484;-61
2020/12/08 08:28:15;;;;;;;58.33;22.63;;;0.40;99.90;;;;;;4451888;28;657554;-62
2020/12/08 08:31:03;;;;;;;53.88;20.35;;;0.40;99.90;;;;;;4460591;28;657154;-60
2020/12/08 08:33:50;;;;;;;51.77;19.33;;;0.40;99.90;;;;;;4439386;28;657509;-63
2020/12/08 08:36:37;;;;;;;55.77;20.47;;;0.50;99.90;;;;;;4462774;28;657826;-61
2020/12/08 08:39:25;;;;;;;57.65;20.38;;;0.60;99.90;;;;;;4458631;28;658782;-60
2020/12/08 08:42:12;;;;;;;53.87;18.83;;;0.60;99.90;;;;;;4429396;28;658652;-62
2020/12/08 08:44:59;;;;;;;57.13;19.67;;;0.60;99.90;;;;;;4454645;28;658527;-62
2020/12/08 08:47:47;;;;;;;55.73;20.83;;;0.70;99.90;;;;;;4439437;28;657467;-62
2020/12/08 08:50:34;;;;;;;55.90;22.20;;;0.80;99.90;;;;;;4457826;28;657810;-60
2020/12/08 08:53:21;;;;;;;51.00;21.00;;;0.90;99.90;;;;;;4439561;28;657694;-60
2020/12/08 08:56:08;;;;;;;52.40;20.70;;;1.00;99.90;;;;;;4459461;28;658102;-61
2020/12/08 08:58:55;;;;;;;49.45;20.65;;;1.00;99.90;;;;;;4436229;28;658646;-61
2020/12/08 09:01:43;;;;;;;51.20;21.95;;;1.10;99.90;;;;;;4463116;28;658766;-60
2020/12/08 09:04:31;;;;;;;58.37;22.23;;;1.20;99.90;;;;;;4453690;28;657558;-62
2020/12/08 09:07:18;;;;;;;48.77;19.87;;;1.30;99.90;;;;;;4458190;28;658339;-60
2020/12/08 09:10:06;;;;;;;53.15;23.20;;;1.50;99.90;;;;;;4437270;28;657965;-62
2020/12/08 09:12:53;;;;;;;51.55;19.92;;;1.70;99.90;;;;;;4455001;28;658768;-61
2020/12/08 09:15:40;;;;;;;47.07;20.17;;;1.80;99.90;;;;;;4457530;28;657698;-60
2020/12/08 09:18:27;;;;;;;56.13;21.10;;;1.80;99.90;;;;;;4435856;28;657665;-60
2020/12/08 09:21:15;;;;;;;48.13;19.87;;;1.90;99.90;;;;;;4450843;28;657726;-60
2020/12/08 09:24:02;;;;;;;47.30;19.33;;;2.00;99.90;;;;;;4440076;28;658172;-61
2020/12/08 09:26:49;;;;;;;49.30;20.10;;;2.10;99.90;;;;;;4455204;28;657880;-61
2020/12/08 09:29:36;;;;;;;53.57;20.07;;;2.00;99.90;;;;;;4446894;28;657726;-61
2020/12/08 09:32:23;;;;;;;51.53;20.27;;;2.00;99.90;;;;;;4456952;28;658654;-60
2020/12/08 09:35:11;;;;;;;47.67;20.23;;;2.10;99.90;;;;;;4446341;28;657873;-63
2020/12/08 09:37:59;;;;;;;41.65;18.42;;;2.20;99.90;;;;;;4457042;28;661256;-60
2020/12/08 09:40:46;;;;;;;47.63;18.27;;;2.40;99.90;;;;;;4433209;28;657680;-62
2020/12/08 09:43:33;;;;;;;40.47;18.13;;;2.60;99.90;;;;;;4446568;28;659200;-60
2020/12/08 09:46:20;;;;;;;44.27;19.20;;;2.90;99.90;;;;;;4444896;28;657527;-62
2020/12/08 09:49:08;;;;;;;44.88;19.83;;;3.40;99.90;;;;;;4460710;28;658053;-60
2020/12/08 09:51:55;;;;;;;44.37;19.07;;;4.00;99.90;;;;;;4450699;28;658057;-60
2020/12/08 09:54:44;;;;;;;46.13;19.37;;;4.70;99.90;;;;;;4435265;28;659302;-61
2020/12/08 09:57:31;;;;;;;39.83;16.60;;;5.00;99.90;;;;;;4433150;28;658006;-61
2020/12/08 10:00:18;;;;;;;49.70;18.77;;;5.70;99.90;;;;;;4459871;28;658452;-60
2020/12/08 10:03:05;;;;;;;39.30;17.27;;;6.10;99.90;;;;;;4436751;28;658862;-61
2020/12/08 10:05:53;;;;;;;41.55;17.13;;;6.30;99.90;;;;;;4462532;28;657875;-61
2020/12/08 10:08:40;;;;;;;41.40;18.10;;;6.70;96.10;;;;;;4450483;28;657593;-61
2020/12/08 10:11:28;;;;;;;36.63;16.73;;;7.40;90.40;;;;;;4432626;28;659431;-61
2020/12/08 10:14:15;;;;;;;39.87;17.43;;;7.90;78.70;;;;;;4458492;28;657398;-61
2020/12/08 10:17:02;;;;;;;42.33;17.83;;;7.90;78.90;;;;;;4445637;28;657477;-61
2020/12/08 10:19:49;;;;;;;38.97;17.87;;;8.00;77.20;;;;;;4462706;28;657309;-60
2020/12/08 10:22:37;;;;;;;37.77;16.97;;;8.70;72.90;;;;;;4431903;28;657546;-61
2020/12/08 10:25:24;;;;;;;40.00;17.80;;;8.20;72.80;;;;;;4456819;28;658022;-61
2020/12/08 10:28:13;;;;;;;34.03;16.75;;;8.40;73.40;;;;;;4434657;28;657672;-61
2020/12/08 10:31:00;;;;;;;33.93;16.90;;;9.50;71.50;;;;;;4446940;28;658121;-62
2020/12/08 10:33:48;;;;;;;38.97;18.60;;;10.40;64.40;;;;;;4457354;28;659172;-61
2020/12/08 10:36:35;;;;;;;43.67;19.60;;;11.50;61.00;;;;;;4456679;28;658577;-61
2020/12/08 10:39:22;;;;;;;39.30;18.60;;;11.40;58.10;;;;;;4443869;28;658582;-61
2020/12/08 10:42:09;;;;;;;38.90;18.87;;;10.60;59.90;;;;;;4468465;28;658622;-61
2020/12/08 10:44:57;;;;;;;38.37;18.60;;;10.70;60.20;;;;;;4443791;28;658643;-62
2020/12/08 10:47:44;;;;;;;34.87;18.33;;;12.00;58.10;;;;;;4469530;28;659208;-61
2020/12/08 10:50:31;;;;;;;39.97;18.40;;;13.00;56.90;;;;;;4443267;28;659119;-61
2020/12/08 10:53:18;;;;;;;36.60;18.37;;;12.60;52.80;;;;;;4468839;28;659884;-61
2020/12/08 10:56:05;;;;;;;35.97;17.87;;;12.00;56.00;;;;;;4449683;28;658527;-62
2020/12/08 10:58:53;;;;;;;35.30;18.40;;;13.40;53.30;;;;;;4472452;28;658595;-61
2020/12/08 11:01:42;;;;;;;40.28;19.17;;;13.40;51.90;;;;;;4444807;28;660465;-62
2020/12/08 11:04:29;;;;;;;40.00;18.00;;;13.60;53.30;;;;;;4468864;28;660135;-59
2020/12/08 11:07:16;;;;;;;38.80;19.30;;;14.40;50.90;;;;;;4449838;28;658411;-60
2020/12/08 11:10:03;;;;;;;37.47;19.10;;;14.30;48.60;;;;;;4463309;28;659580;-59
2020/12/08 11:12:50;;;;;;;40.03;19.10;;;13.50;50.20;;;;;;4460737;28;658431;-61
2020/12/08 11:15:38;;;;;;;38.97;18.93;;;13.20;49.90;;;;;;4464021;28;658862;-58
2020/12/08 11:18:26;;;;;;;37.30;19.70;;;13.00;50.80;;;;;;4466421;28;658931;-60
2020/12/08 11:21:13;;;;;;;35.07;18.97;;;12.70;52.10;;;;;;4440710;28;660366;-59
2020/12/08 11:24:00;;;;;;;37.43;19.43;;;13.20;53.20;;;;;;4457311;28;658569;-59
2020/12/08 11:26:47;;;;;;;37.70;19.40;;;13.50;51.30;;;;;;4443557;28;659683;-59
2020/12/08 11:29:34;;;;;;;39.63;18.17;;;14.50;50.70;;;;;;4462040;28;660069;-59
2020/12/08 11:32:21;;;;;;;35.73;18.00;;;14.30;48.80;;;;;;4436862;28;658467;-59
2020/12/08 11:35:09;;;;;;;31.07;18.37;;;14.30;48.10;;;;;;4455504;28;660254;-58
2020/12/08 11:37:56;;;;;;;39.13;18.60;;;13.70;50.10;;;;;;4439967;28;658711;-59
2020/12/08 11:40:44;;;;;;;39.17;19.60;;;14.70;48.80;;;;;;4463446;28;660226;-58
2020/12/08 11:43:31;;;;;;;35.57;18.40;;;14.60;48.30;;;;;;4439908;28;658699;-61
2020/12/08 11:46:18;;;;;;;38.10;18.47;;;15.40;46.40;;;;;;4461858;28;660384;-58
2020/12/08 11:49:06;;;;;;;36.10;18.80;;;15.00;46.70;;;;;;4445573;28;658537;-61
2020/12/08 11:51:54;;;;;;;34.60;17.97;;;14.90;47.20;;;;;;4467151;28;660431;-59
2020/12/08 11:54:41;;;;;;;33.17;17.43;;;15.80;45.50;;;;;;4445703;28;658882;-60
2020/12/08 11:57:28;;;;;;;35.77;18.43;;;16.30;43.80;;;;;;4460551;28;659927;-59
2020/12/08 12:00:16;;;;;;;35.72;17.67;;;16.10;42.70;;;;;;4427238;28;658524;-60
2020/12/08 12:03:03;;;;;;;35.37;18.73;;;16.00;44.40;;;;;;4452492;28;660718;-59
2020/12/08 12:05:51;;;;;;;37.70;19.20;;;16.00;44.90;;;;;;4447833;28;658692;-60
2020/12/08 12:08:39;;;;;;;33.93;18.30;;;15.40;44.40;;;;;;4465070;28;660220;-59
2020/12/08 12:11:26;;;;;;;32.40;17.73;;;15.30;45.90;;;;;;4444238;28;658590;-60
2020/12/08 12:14:13;;;;;;;31.13;17.77;;;15.60;45.90;;;;;;4457985;28;659899;-58
2020/12/08 12:17:00;;;;;;;31.30;17.67;;;15.40;45.10;;;;;;4458990;28;658755;-58
2020/12/08 12:19:47;;;;;;;36.57;18.37;;;16.00;44.00;;;;;;4452819;27;659303;-59
2020/12/08 12:22:34;;;;;;;34.87;18.90;;;15.80;44.90;;;;;;4455913;28;659167;-58
2020/12/08 12:25:24;;;;;;;34.43;17.93;;;16.10;44.90;;;;;;4445430;28;659401;-60
2020/12/08 12:28:12;;;;;;;31.40;18.23;;;16.00;44.40;;;;;;4440110;28;658693;-59
2020/12/08 12:30:59;;;;;;;32.30;17.43;;;16.20;45.20;;;;;;4459646;28;658946;-58
2020/12/08 12:33:54;;;;;;;30.73;17.30;;;16.00;44.80;;;;;;4443972;28;658262;-59
2020/12/08 12:36:42;;;;;;;38.10;19.37;;;16.50;42.80;;;;;;4433916;28;658516;-59
2020/12/08 12:39:29;;;;;;;44.10;18.80;;;15.60;44.20;;;;;;4457291;28;659558;-59
2020/12/08 12:42:18;;;;;;;33.03;19.17;;;14.90;45.50;;;;;;4441811;28;659541;-58
2020/12/08 12:45:05;;;;;;;37.30;18.83;;;14.10;46.50;;;;;;4449292;28;658722;-60
2020/12/08 12:47:53;;;;;;;35.20;18.33;;;13.70;48.40;;;;;;4468767;28;658886;-58
2020/12/08 12:50:41;;;;;;;38.67;18.70;;;14.20;47.40;;;;;;4457748;28;659616;-58
2020/12/08 12:53:28;;;;;;;38.10;18.25;;;14.00;47.10;;;;;;4430262;28;659669;-58
2020/12/08 12:56:19;;;;;;;40.03;18.70;;;13.60;49.10;;;;;;4451335;28;658766;-59
2020/12/08 12:59:07;;;;;;;43.37;18.63;;;13.30;49.20;;;;;;4434868;28;658592;-59
2020/12/08 13:01:54;;;;;;;33.77;17.57;;;13.40;48.70;;;;;;4464757;28;659432;-59
2020/12/08 13:04:41;;;;;;;37.27;18.37;;;12.50;49.80;;;;;;4436877;28;659524;-58
2020/12/08 13:07:28;;;;;;;37.43;18.93;;;11.90;51.70;;;;;;4466003;27;660909;-58
2020/12/08 13:10:15;;;;;;;37.20;18.73;;;10.50;53.70;;;;;;4458059;28;658863;-58
2020/12/08 13:13:02;;;;;;;36.13;18.23;;;9.90;57.20;;;;;;4434798;28;660615;-59
2020/12/08 13:15:50;;;;;;;37.53;18.33;;;10.80;55.10;;;;;;4457129;28;658077;-58
2020/12/08 13:18:37;;;;;;;40.80;18.47;;;11.30;53.90;;;;;;4433660;28;660133;-58
2020/12/08 13:21:24;;;;;;;38.60;18.07;;;11.90;52.70;;;;;;4465036;28;658414;-58
2020/12/08 13:24:11;;;;;;;33.77;17.87;;;12.10;51.90;;;;;;4435897;28;658383;-58
2020/12/08 13:26:59;;;;;;;36.20;18.23;;;12.40;51.10;;;;;;4450592;28;659599;-58
2020/12/08 13:29:46;;;;;;;32.77;18.20;;;12.20;51.00;;;;;;4434210;28;658465;-59
2020/12/08 13:32:34;;;;;;;35.43;19.33;;;11.40;51.70;;;;;;4453238;28;659909;-58
2020/12/08 13:35:21;;;;;;;34.30;18.53;;;11.40;53.40;;;;;;4434300;28;658465;-59
2020/12/08 13:38:08;;;;;;;37.87;18.53;;;11.20;53.70;;;;;;4457776;28;659635;-58
2020/12/08 13:40:55;;;;;;;35.73;18.53;;;11.40;53.70;;;;;;4434535;28;658714;-59
2020/12/08 13:43:43;;;;;;;38.17;18.50;;;11.40;52.80;;;;;;4462822;28;660271;-58
2020/12/08 13:46:30;;;;;;;41.47;19.47;;;11.30;52.90;;;;;;4457297;28;658655;-58
2020/12/08 13:49:18;;;;;;;40.47;19.73;;;10.60;53.70;;;;;;4443295;28;658636;-58
2020/12/08 13:52:06;;;;;;;37.67;19.07;;;10.70;54.30;;;;;;4453512;28;658622;-60
2020/12/08 13:54:53;;;;;;;36.55;19.42;;;10.90;54.50;;;;;;4453989;28;660897;-58
2020/12/08 13:57:40;;;;;;;41.97;20.47;;;10.50;53.50;;;;;;4461699;28;658547;-58
2020/12/08 14:00:27;;;;;;;40.70;19.23;;;10.20;53.90;;;;;;4438354;28;659738;-58
2020/12/08 14:03:14;;;;;;;41.20;21.07;;;10.10;55.30;;;;;;4455636;28;658797;-58
2020/12/08 14:06:02;;;;;;;45.90;21.10;;;10.50;54.80;;;;;;4441592;28;658540;-58